sensor_id;sensor_type;location;lat;lon;timestamp;pressure;altitude;pressure_sealevel;temperature;humidity
8101;BME280;4093;53.470;9.832;2023-11-21T00:00:56;100833.13;;;12.53;98.31
8101;BME280;4093;53.470;9.832;2023-11-21T00:03:25;100822.34;;;12.69;95.46
8101;BME280;4093;53.470;9.832;2023-11-21T00:05:54;100821.19;;;13.14;94.42
8101;BME280;4093;53.470;9.832;2023-11-21T00:08:22;100804.75;;;12.09;97.30
8101;BME280;4093;53.470;9.832;2023-11-21T00:10:50;100824.22;;;12.27;99.37
8101;BME280;4093;53.470;9.832;2023-11-21T00:13:18;100817.00;;;11.61;100.00
8101;BME280;4093;53.470;9.832;2023-11-21T00:15:46;100819.91;;;11.44;100.00
8101;BME280;4093;53.470;9.832;2023-11-21T00:18:15;100832.72;;;11.95;99.72
8101;BME280;4093;53.470;9.832;2023-11-21T00:20:43;100837.53;;;11.68;100.00
8101;BME280;4093;53.470;9.832;2023-11-21T00:23:11;100840.03;;;12.16;99.80
8101;BME280;4093;53.470;9.832;2023-11-21T00:25:38;100843.03;;;11.98;98.62
8101;BME280;4093;53.470;9.832;2023-11-21T00:28:06;100829.66;;;10.83;100.00
8101;BME280;4093;53.470;9.832;2023-11-21T00:30:34;100836.75;;;11.21;100.00
8101;BME280;4093;53.470;9.832;2023-11-21T00:33:02;100848.34;;;11.47;100.00
8101;BME280;4093;53.470;9.832;2023-11-21T00:35:32;100862.56;;;12.13;99.07
8101;BME280;4093;53.470;9.832;2023-11-21T00:37:59;100836.31;;;10.98;100.00
8101;BME280;4093;53.470;9.832;2023-11-21T00:40:27;100848.34;;;11.00;100.00
8101;BME280;4093;53.470;9.832;2023-11-21T00:42:55;100843.91;;;10.56;100.00
8101;BME280;4093;53.470;9.832;2023-11-21T00:45:23;100852.25;;;10.73;100.00
8101;BME280;4093;53.470;9.832;2023-11-21T00:47:50;100859.03;;;10.80;100.00
8101;BME280;4093;53.470;9.832;2023-11-21T00:50:18;100865.53;;;11.03;100.00
8101;BME280;4093;53.470;9.832;2023-11-21T00:52:47;100882.41;;;11.70;100.00
8101;BME280;4093;53.470;9.832;2023-11-21T00:55:16;100878.38;;;11.55;98.21
8101;BME280;4093;53.470;9.832;2023-11-21T00:57:44;100894.66;;;12.07;98.80
8101;BME280;4093;53.470;9.832;2023-11-21T01:00:13;100899.84;;;12.07;97.45
8101;BME280;4093;53.470;9.832;2023-11-21T01:02:43;100883.59;;;11.06;100.00
8101;BME280;4093;53.470;9.832;2023-11-21T01:05:11;100877.28;;;10.71;100.00
8101;BME280;4093;53.470;9.832;2023-11-21T01:07:39;100894.47;;;10.75;100.00
8101;BME280;4093;53.470;9.832;2023-11-21T01:10:08;100912.44;;;10.83;100.00
8101;BME280;4093;53.470;9.832;2023-11-21T01:12:37;100897.56;;;10.41;100.00
8101;BME280;4093;53.470;9.832;2023-11-21T01:15:06;100922.25;;;10.62;100.00
8101;BME280;4093;53.470;9.832;2023-11-21T01:17:34;100925.94;;;10.45;100.00
8101;BME280;4093;53.470;9.832;2023-11-21T01:20:03;100929.47;;;10.39;100.00
8101;BME280;4093;53.470;9.832;2023-11-21T01:22:37;100913.41;;;10.14;100.00
8101;BME280;4093;53.470;9.832;2023-11-21T01:25:07;100935.47;;;10.39;99.56
8101;BME280;4093;53.470;9.832;2023-11-21T01:27:35;100944.22;;;10.31;100.00
8101;BME280;4093;53.470;9.832;2023-11-21T01:30:04;100937.16;;;9.72;100.00
8101;BME280;4093;53.470;9.832;2023-11-21T01:32:33;100929.25;;;9.85;100.00
8101;BME280;4093;53.470;9.832;2023-11-21T01:35:01;100946.94;;;10.18;100.00
8101;BME280;4093;53.470;9.832;2023-11-21T01:37:29;100949.66;;;10.08;100.00
8101;BME280;4093;53.470;9.832;2023-11-21T01:39:57;100945.69;;;9.79;100.00
8101;BME280;4093;53.470;9.832;2023-11-21T01:42:26;100976.22;;;10.84;97.79
8101;BME280;4093;53.470;9.832;2023-11-21T01:44:55;100955.97;;;10.55;97.07
8101;BME280;4093;53.470;9.832;2023-11-21T01:47:23;100970.59;;;10.57;97.47
8101;BME280;4093;53.470;9.832;2023-11-21T01:49:52;100946.78;;;9.57;100.00
8101;BME280;4093;53.470;9.832;2023-11-21T01:52:20;100952.13;;;9.35;100.00
8101;BME280;4093;53.470;9.832;2023-11-21T01:54:48;100965.38;;;9.86;100.00
8101;BME280;4093;53.470;9.832;2023-11-21T01:57:15;100968.88;;;9.82;99.69
8101;BME280;4093;53.470;9.832;2023-11-21T01:59:45;100953.22;;;9.08;100.00
8101;BME280;4093;53.470;9.832;2023-11-21T02:02:16;100941.38;;;8.84;100.00
8101;BME280;4093;53.470;9.832;2023-11-21T02:04:44;100977.31;;;9.06;100.00
8101;BME280;4093;53.470;9.832;2023-11-21T02:07:12;100968.84;;;8.87;100.00
8101;BME280;4093;53.470;9.832;2023-11-21T02:09:39;100984.78;;;9.39;100.00
8101;BME280;4093;53.470;9.832;2023-11-21T02:12:09;100980.72;;;9.12;100.00
8101;BME280;4093;53.470;9.832;2023-11-21T02:14:37;100991.75;;;10.14;99.34
8101;BME280;4093;53.470;9.832;2023-11-21T02:17:06;100988.72;;;9.77;99.99
8101;BME280;4093;53.470;9.832;2023-11-21T02:19:34;100983.97;;;9.37;100.00
8101;BME280;4093;53.470;9.832;2023-11-21T02:22:02;100989.06;;;9.42;99.87
8101;BME280;4093;53.470;9.832;2023-11-21T02:24:34;100987.59;;;9.10;100.00
8101;BME280;4093;53.470;9.832;2023-11-21T02:27:04;101001.41;;;9.01;100.00
8101;BME280;4093;53.470;9.832;2023-11-21T02:29:32;101015.72;;;9.42;98.91
8101;BME280;4093;53.470;9.832;2023-11-21T02:32:00;101023.88;;;9.93;97.02
8101;BME280;4093;53.470;9.832;2023-11-21T02:34:28;101018.06;;;9.71;96.76
8101;BME280;4093;53.470;9.832;2023-11-21T02:36:56;101026.81;;;9.52;98.08
8101;BME280;4093;53.470;9.832;2023-11-21T02:39:24;101021.25;;;8.93;99.29
8101;BME280;4093;53.470;9.832;2023-11-21T02:41:53;101021.59;;;9.61;96.50
8101;BME280;4093;53.470;9.832;2023-11-21T02:44:21;101042.78;;;9.95;95.88
8101;BME280;4093;53.470;9.832;2023-11-21T02:46:48;101028.56;;;9.48;97.00
8101;BME280;4093;53.470;9.832;2023-11-21T02:49:16;101020.31;;;9.03;98.05
8101;BME280;4093;53.470;9.832;2023-11-21T02:51:44;101029.78;;;9.03;99.04
8101;BME280;4093;53.470;9.832;2023-11-21T02:54:12;101030.53;;;9.19;97.21
8101;BME280;4093;53.470;9.832;2023-11-21T02:56:39;101027.91;;;9.23;96.92
8101;BME280;4093;53.470;9.832;2023-11-21T02:59:08;101043.91;;;9.67;95.68
8101;BME280;4093;53.470;9.832;2023-11-21T03:01:36;101013.69;;;8.63;96.92
8101;BME280;4093;53.470;9.832;2023-11-21T03:04:04;101024.53;;;9.17;95.02
8101;BME280;4093;53.470;9.832;2023-11-21T03:06:33;101036.50;;;9.29;96.18
8101;BME280;4093;53.470;9.832;2023-11-21T03:09:01;101028.63;;;9.44;93.19
8101;BME280;4093;53.470;9.832;2023-11-21T03:11:29;101035.00;;;8.97;95.85
8101;BME280;4093;53.470;9.832;2023-11-21T03:13:56;101026.47;;;8.87;96.81
8101;BME280;4093;53.470;9.832;2023-11-21T03:16:25;101035.69;;;9.22;95.65
8101;BME280;4093;53.470;9.832;2023-11-21T03:18:53;101053.38;;;9.65;95.32
8101;BME280;4093;53.470;9.832;2023-11-21T03:21:21;101052.94;;;9.12;95.62
8101;BME280;4093;53.470;9.832;2023-11-21T03:23:48;101058.03;;;9.20;96.15
8101;BME280;4093;53.470;9.832;2023-11-21T03:26:16;101040.81;;;9.25;94.71
8101;BME280;4093;53.470;9.832;2023-11-21T03:28:44;101046.91;;;9.12;94.08
8101;BME280;4093;53.470;9.832;2023-11-21T03:31:12;101064.97;;;9.12;94.05
8101;BME280;4093;53.470;9.832;2023-11-21T03:33:41;101071.06;;;9.01;95.65
8101;BME280;4093;53.470;9.832;2023-11-21T03:36:09;101056.66;;;8.65;95.96
8101;BME280;4093;53.470;9.832;2023-11-21T03:38:37;101066.88;;;8.79;96.34
8101;BME280;4093;53.470;9.832;2023-11-21T03:41:05;101078.72;;;9.14;93.45
8101;BME280;4093;53.470;9.832;2023-11-21T03:43:34;101084.78;;;9.10;93.17
8101;BME280;4093;53.470;9.832;2023-11-21T03:46:02;101084.97;;;8.70;94.12
8101;BME280;4093;53.470;9.832;2023-11-21T03:48:29;101079.88;;;8.54;95.77
8101;BME280;4093;53.470;9.832;2023-11-21T03:51:00;101073.06;;;8.41;95.77
8101;BME280;4093;53.470;9.832;2023-11-21T03:53:27;101097.63;;;9.17;94.11
8101;BME280;4093;53.470;9.832;2023-11-21T03:55:55;101086.63;;;8.80;94.92
8101;BME280;4093;53.470;9.832;2023-11-21T03:58:23;101091.84;;;8.65;96.18
8101;BME280;4093;53.470;9.832;2023-11-21T04:00:51;101099.44;;;9.00;93.99
8101;BME280;4093;53.470;9.832;2023-11-21T04:03:18;101100.16;;;9.20;94.17
8101;BME280;4093;53.470;9.832;2023-11-21T04:05:47;101102.78;;;9.16;92.95
8101;BME280;4093;53.470;9.832;2023-11-21T04:08:16;101113.91;;;9.25;94.28
8101;BME280;4093;53.470;9.832;2023-11-21T04:10:44;101120.72;;;9.40;93.30
8101;BME280;4093;53.470;9.832;2023-11-21T04:13:12;101130.59;;;9.95;91.17
8101;BME280;4093;53.470;9.832;2023-11-21T04:15:40;101119.09;;;9.18;93.05
8101;BME280;4093;53.470;9.832;2023-11-21T04:18:07;101111.47;;;8.98;93.17
8101;BME280;4093;53.470;9.832;2023-11-21T04:20:35;101121.84;;;8.93;95.26
8101;BME280;4093;53.470;9.832;2023-11-21T04:23:03;101137.88;;;9.47;93.41
8101;BME280;4093;53.470;9.832;2023-11-21T04:25:32;101133.84;;;8.94;95.21
8101;BME280;4093;53.470;9.832;2023-11-21T04:28:00;101138.06;;;9.11;92.03
8101;BME280;4093;53.470;9.832;2023-11-21T04:30:28;101134.00;;;8.34;95.25
8101;BME280;4093;53.470;9.832;2023-11-21T04:32:55;101137.47;;;8.41;95.45
8101;BME280;4093;53.470;9.832;2023-11-21T04:35:23;101151.81;;;9.13;93.31
8101;BME280;4093;53.470;9.832;2023-11-21T04:37:51;101150.28;;;8.72;93.86
8101;BME280;4093;53.470;9.832;2023-11-21T04:40:19;101177.47;;;9.43;93.09
8101;BME280;4093;53.470;9.832;2023-11-21T04:42:48;101164.81;;;8.84;94.54
8101;BME280;4093;53.470;9.832;2023-11-21T04:45:16;101165.66;;;8.93;92.37
8101;BME280;4093;53.470;9.832;2023-11-21T04:47:44;101182.59;;;9.49;91.13
8101;BME280;4093;53.470;9.832;2023-11-21T04:50:12;101186.28;;;8.99;94.10
8101;BME280;4093;53.470;9.832;2023-11-21T04:52:40;101179.44;;;8.83;93.37
8101;BME280;4093;53.470;9.832;2023-11-21T04:55:08;101193.00;;;9.30;93.43
8101;BME280;4093;53.470;9.832;2023-11-21T04:57:37;101182.06;;;8.68;93.22
8101;BME280;4093;53.470;9.832;2023-11-21T05:00:08;101182.91;;;8.73;95.18
8101;BME280;4093;53.470;9.832;2023-11-21T05:02:36;101196.59;;;9.02;92.11
8101;BME280;4093;53.470;9.832;2023-11-21T05:05:05;101193.88;;;9.27;92.08
8101;BME280;4093;53.470;9.832;2023-11-21T05:07:34;101199.03;;;9.35;92.19
8101;BME280;4093;53.470;9.832;2023-11-21T05:10:04;101186.34;;;8.73;92.74
8101;BME280;4093;53.470;9.832;2023-11-21T05:12:34;101199.03;;;9.35;90.99
8101;BME280;4093;53.470;9.832;2023-11-21T05:15:06;101191.50;;;8.84;93.12
8101;BME280;4093;53.470;9.832;2023-11-21T05:17:36;101206.00;;;9.16;91.99
8101;BME280;4093;53.470;9.832;2023-11-21T05:20:07;101203.53;;;8.70;93.47
8101;BME280;4093;53.470;9.832;2023-11-21T05:22:36;101212.03;;;9.06;91.65
8101;BME280;4093;53.470;9.832;2023-11-21T05:25:05;101208.63;;;8.97;93.60
8101;BME280;4093;53.470;9.832;2023-11-21T05:27:34;101223.16;;;9.27;93.43
8101;BME280;4093;53.470;9.832;2023-11-21T05:30:03;101216.41;;;8.82;92.80
8101;BME280;4093;53.470;9.832;2023-11-21T05:32:33;101225.84;;;8.91;92.31
8101;BME280;4093;53.470;9.832;2023-11-21T05:35:01;101232.66;;;9.06;93.08
8101;BME280;4093;53.470;9.832;2023-11-21T05:37:29;101245.41;;;9.45;90.81
8101;BME280;4093;53.470;9.832;2023-11-21T05:39:57;101246.28;;;9.40;89.77
8101;BME280;4093;53.470;9.832;2023-11-21T05:42:25;101244.72;;;9.03;91.85
8101;BME280;4093;53.470;9.832;2023-11-21T05:44:53;101248.81;;;9.55;89.87
8101;BME280;4093;53.470;9.832;2023-11-21T05:47:21;101240.31;;;9.33;88.49
8101;BME280;4093;53.470;9.832;2023-11-21T05:49:50;101249.78;;;9.31;88.90
8101;BME280;4093;53.470;9.832;2023-11-21T05:52:18;101259.09;;;9.66;88.66
8101;BME280;4093;53.470;9.832;2023-11-21T05:54:47;101261.66;;;9.66;87.29
8101;BME280;4093;53.470;9.832;2023-11-21T05:57:15;101275.47;;;9.53;89.37
8101;BME280;4093;53.470;9.832;2023-11-21T05:59:43;101279.78;;;9.52;88.88
8101;BME280;4093;53.470;9.832;2023-11-21T06:02:12;101280.53;;;9.74;87.60
8101;BME280;4093;53.470;9.832;2023-11-21T06:04:40;101269.66;;;8.92;91.19
8101;BME280;4093;53.470;9.832;2023-11-21T06:07:09;101285.00;;;9.40;88.88
8101;BME280;4093;53.470;9.832;2023-11-21T06:09:37;101296.94;;;9.71;88.17
8101;BME280;4093;53.470;9.832;2023-11-21T06:12:05;101304.41;;;10.16;87.39
8101;BME280;4093;53.470;9.832;2023-11-21T06:14:33;101283.09;;;9.80;87.00
8101;BME280;4093;53.470;9.832;2023-11-21T06:17:01;101303.69;;;9.97;87.25
8101;BME280;4093;53.470;9.832;2023-11-21T06:19:30;101305.59;;;9.60;88.85
8101;BME280;4093;53.470;9.832;2023-11-21T06:21:58;101311.34;;;10.12;87.27
8101;BME280;4093;53.470;9.832;2023-11-21T06:24:27;101303.97;;;9.34;89.50
8101;BME280;4093;53.470;9.832;2023-11-21T06:26:55;101324.19;;;10.22;88.19
8101;BME280;4093;53.470;9.832;2023-11-21T06:29:22;101335.13;;;10.59;86.14
8101;BME280;4093;53.470;9.832;2023-11-21T06:31:50;101325.34;;;9.64;88.21
8101;BME280;4093;53.470;9.832;2023-11-21T06:34:18;101332.00;;;10.15;87.48
8101;BME280;4093;53.470;9.832;2023-11-21T06:36:46;101337.31;;;9.80;88.81
8101;BME280;4093;53.470;9.832;2023-11-21T06:39:14;101347.31;;;10.48;85.04
8101;BME280;4093;53.470;9.832;2023-11-21T06:41:44;101331.34;;;9.75;87.35
8101;BME280;4093;53.470;9.832;2023-11-21T06:44:12;101346.78;;;9.86;87.88
8101;BME280;4093;53.470;9.832;2023-11-21T06:46:40;101352.56;;;10.35;86.89
8101;BME280;4093;53.470;9.832;2023-11-21T06:49:09;101361.53;;;9.48;88.94
8101;BME280;4093;53.470;9.832;2023-11-21T06:51:37;101354.66;;;9.50;87.84
8101;BME280;4093;53.470;9.832;2023-11-21T06:54:05;101369.19;;;9.78;87.75
8101;BME280;4093;53.470;9.832;2023-11-21T06:56:33;101372.78;;;9.26;90.14
8101;BME280;4093;53.470;9.832;2023-11-21T06:59:03;101387.91;;;10.32;86.49
8101;BME280;4093;53.470;9.832;2023-11-21T07:01:32;101381.94;;;10.19;85.39
8101;BME280;4093;53.470;9.832;2023-11-21T07:04:05;101382.75;;;10.29;84.43
8101;BME280;4093;53.470;9.832;2023-11-21T07:06:33;101386.09;;;10.43;85.37
8101;BME280;4093;53.470;9.832;2023-11-21T07:09:01;101385.28;;;10.39;84.46
8101;BME280;4093;53.470;9.832;2023-11-21T07:11:29;101402.28;;;10.73;84.41
8101;BME280;4093;53.470;9.832;2023-11-21T07:13:57;101407.31;;;10.89;83.78
8101;BME280;4093;53.470;9.832;2023-11-21T07:16:26;101411.81;;;10.68;83.04
8101;BME280;4093;53.470;9.832;2023-11-21T07:18:54;101415.88;;;11.01;83.52
8101;BME280;4093;53.470;9.832;2023-11-21T07:21:22;101414.44;;;10.63;83.79
8101;BME280;4093;53.470;9.832;2023-11-21T07:23:51;101412.53;;;10.83;82.22
8101;BME280;4093;53.470;9.832;2023-11-21T07:26:18;101427.84;;;11.13;81.49
8101;BME280;4093;53.470;9.832;2023-11-21T07:28:46;101419.59;;;10.63;82.24
8101;BME280;4093;53.470;9.832;2023-11-21T07:31:14;101430.63;;;10.91;83.04
8101;BME280;4093;53.470;9.832;2023-11-21T07:33:43;101435.66;;;11.09;81.79
8101;BME280;4093;53.470;9.832;2023-11-21T07:36:13;101439.16;;;10.99;81.64
8101;BME280;4093;53.470;9.832;2023-11-21T07:38:42;101455.34;;;11.26;83.29
8101;BME280;4093;53.470;9.832;2023-11-21T07:41:10;101457.84;;;11.33;82.34
8101;BME280;4093;53.470;9.832;2023-11-21T07:43:56;101459.59;;;11.33;81.27
8101;BME280;4093;53.470;9.832;2023-11-21T07:46:25;101464.75;;;11.38;81.43
8101;BME280;4093;53.470;9.832;2023-11-21T07:48:55;101466.38;;;11.48;79.63
8101;BME280;4093;53.470;9.832;2023-11-21T07:51:23;101469.63;;;10.56;83.10
8101;BME280;4093;53.470;9.832;2023-11-21T07:53:50;101462.13;;;9.84;84.12
8101;BME280;4093;53.470;9.832;2023-11-21T07:56:18;101458.69;;;9.92;83.96
8101;BME280;4093;53.470;9.832;2023-11-21T07:58:46;101480.19;;;10.01;84.49
8101;BME280;4093;53.470;9.832;2023-11-21T08:01:15;101473.28;;;10.04;83.99
8101;BME280;4093;53.470;9.832;2023-11-21T08:03:43;101480.97;;;10.18;83.26
8101;BME280;4093;53.470;9.832;2023-11-21T08:06:13;101484.47;;;10.09;84.11
8101;BME280;4093;53.470;9.832;2023-11-21T08:08:41;101481.06;;;9.92;84.67
8101;BME280;4093;53.470;9.832;2023-11-21T08:11:09;101491.94;;;10.78;82.23
8101;BME280;4093;53.470;9.832;2023-11-21T08:13:39;101496.81;;;11.15;81.48
8101;BME280;4093;53.470;9.832;2023-11-21T08:16:07;101498.31;;;11.44;80.04
8101;BME280;4093;53.470;9.832;2023-11-21T08:18:35;101506.25;;;11.27;80.81
8101;BME280;4093;53.470;9.832;2023-11-21T08:21:03;101507.91;;;11.34;81.60
8101;BME280;4093;53.470;9.832;2023-11-21T08:23:32;101507.72;;;11.57;80.07
8101;BME280;4093;53.470;9.832;2023-11-21T08:26:00;101507.63;;;10.41;82.76
8101;BME280;4093;53.470;9.832;2023-11-21T08:28:32;101515.66;;;11.35;80.16
8101;BME280;4093;53.470;9.832;2023-11-21T08:31:00;101507.16;;;11.18;80.90
8101;BME280;4093;53.470;9.832;2023-11-21T08:33:28;101510.75;;;11.02;80.17
8101;BME280;4093;53.470;9.832;2023-11-21T08:35:55;101519.28;;;11.16;80.62
8101;BME280;4093;53.470;9.832;2023-11-21T08:38:23;101522.59;;;11.30;80.30
8101;BME280;4093;53.470;9.832;2023-11-21T08:40:52;101519.66;;;10.49;80.67
8101;BME280;4093;53.470;9.832;2023-11-21T08:43:20;101530.97;;;10.08;83.04
8101;BME280;4093;53.470;9.832;2023-11-21T08:45:48;101540.41;;;10.30;81.86
8101;BME280;4093;53.470;9.832;2023-11-21T08:48:16;101544.34;;;11.08;80.77
8101;BME280;4093;53.470;9.832;2023-11-21T08:50:44;101548.16;;;10.41;83.00
8101;BME280;4093;53.470;9.832;2023-11-21T08:53:11;101555.47;;;11.22;80.38
8101;BME280;4093;53.470;9.832;2023-11-21T08:55:39;101559.47;;;11.63;79.48
8101;BME280;4093;53.470;9.832;2023-11-21T08:58:08;101563.19;;;11.27;79.27
8101;BME280;4093;53.470;9.832;2023-11-21T09:00:36;101569.13;;;11.44;80.06
8101;BME280;4093;53.470;9.832;2023-11-21T09:03:04;101582.03;;;11.50;79.83
8101;BME280;4093;53.470;9.832;2023-11-21T09:05:38;101570.81;;;11.47;79.06
8101;BME280;4093;53.470;9.832;2023-11-21T09:08:06;101582.03;;;11.47;78.46
8101;BME280;4093;53.470;9.832;2023-11-21T09:10:34;101581.06;;;11.59;78.23
8101;BME280;4093;53.470;9.832;2023-11-21T09:13:03;101591.13;;;10.73;79.10
8101;BME280;4093;53.470;9.832;2023-11-21T09:15:32;101586.94;;;10.27;81.34
8101;BME280;4093;53.470;9.832;2023-11-21T09:18:00;101595.50;;;10.43;79.99
8101;BME280;4093;53.470;9.832;2023-11-21T09:20:28;101592.09;;;10.36;81.34
8101;BME280;4093;53.470;9.832;2023-11-21T09:22:56;101603.91;;;11.02;79.02
8101;BME280;4093;53.470;9.832;2023-11-21T09:25:24;101603.03;;;11.00;79.06
8101;BME280;4093;53.470;9.832;2023-11-21T09:27:51;101610.13;;;10.65;79.15
8101;BME280;4093;53.470;9.832;2023-11-21T09:30:19;101599.03;;;10.13;80.56
8101;BME280;4093;53.470;9.832;2023-11-21T09:32:48;101610.09;;;10.67;80.43
8101;BME280;4093;53.470;9.832;2023-11-21T09:35:16;101619.41;;;11.08;78.45
8101;BME280;4093;53.470;9.832;2023-11-21T09:37:44;101605.91;;;10.32;79.52
8101;BME280;4093;53.470;9.832;2023-11-21T09:40:21;101628.22;;;10.58;80.42
8101;BME280;4093;53.470;9.832;2023-11-21T09:42:54;101632.59;;;9.96;81.50
8101;BME280;4093;53.470;9.832;2023-11-21T09:45:25;101639.38;;;10.77;79.57
8101;BME280;4093;53.470;9.832;2023-11-21T09:47:55;101638.56;;;10.67;80.36
8101;BME280;4093;53.470;9.832;2023-11-21T09:52:57;101667.44;;;11.55;79.66
8101;BME280;4093;53.470;9.832;2023-11-21T09:55:27;101661.31;;;11.65;77.30
8101;BME280;4093;53.470;9.832;2023-11-21T09:57:56;101659.88;;;11.20;78.95
8101;BME280;4093;53.470;9.832;2023-11-21T10:00:24;101656.75;;;10.29;81.01
8101;BME280;4093;53.470;9.832;2023-11-21T10:02:52;101669.63;;;10.50;81.87
8101;BME280;4093;53.470;9.832;2023-11-21T10:05:20;101652.41;;;10.11;81.91
8101;BME280;4093;53.470;9.832;2023-11-21T10:07:52;101669.63;;;10.56;81.41
8101;BME280;4093;53.470;9.832;2023-11-21T10:10:23;101666.13;;;10.73;79.71
8101;BME280;4093;53.470;9.832;2023-11-21T10:12:55;101665.28;;;10.64;79.39
8101;BME280;4093;53.470;9.832;2023-11-21T10:15:24;101665.34;;;10.17;79.35
8101;BME280;4093;53.470;9.832;2023-11-21T10:17:53;101665.28;;;10.55;80.17
8101;BME280;4093;53.470;9.832;2023-11-21T10:20:22;101674.78;;;10.52;81.11
8101;BME280;4093;53.470;9.832;2023-11-21T10:22:50;101669.63;;;10.12;80.83
8101;BME280;4093;53.470;9.832;2023-11-21T10:25:18;101685.00;;;10.98;80.36
8101;BME280;4093;53.470;9.832;2023-11-21T10:27:49;101691.63;;;11.52;77.79
8101;BME280;4093;53.470;9.832;2023-11-21T10:30:18;101700.28;;;11.50;77.59
8101;BME280;4093;53.470;9.832;2023-11-21T10:32:46;101692.50;;;11.54;76.92
8101;BME280;4093;53.470;9.832;2023-11-21T10:35:14;101700.25;;;11.56;77.13
8101;BME280;4093;53.470;9.832;2023-11-21T10:37:42;101689.09;;;11.40;78.27
8101;BME280;4093;53.470;9.832;2023-11-21T10:40:10;101687.50;;;11.21;78.78
8101;BME280;4093;53.470;9.832;2023-11-21T10:42:39;101698.69;;;11.21;79.52
8101;BME280;4093;53.470;9.832;2023-11-21T10:45:10;101705.31;;;11.74;77.92
8101;BME280;4093;53.470;9.832;2023-11-21T10:47:41;101706.06;;;11.98;78.65
8101;BME280;4093;53.470;9.832;2023-11-21T10:50:10;101689.53;;;12.08;76.52
8101;BME280;4093;53.470;9.832;2023-11-21T10:52:39;101710.03;;;10.89;80.89
8101;BME280;4093;53.470;9.832;2023-11-21T10:55:19;101712.22;;;11.75;78.52
8101;BME280;4093;53.470;9.832;2023-11-21T10:57:49;101698.66;;;11.30;79.03
8101;BME280;4093;53.470;9.832;2023-11-21T11:00:20;101709.81;;;11.45;81.28
8101;BME280;4093;53.470;9.832;2023-11-21T11:02:50;101716.00;;;11.16;80.33
8101;BME280;4093;53.470;9.832;2023-11-21T11:05:21;101710.06;;;10.82;80.64
8101;BME280;4093;53.470;9.832;2023-11-21T11:07:51;101714.38;;;10.86;80.60
8101;BME280;4093;53.470;9.832;2023-11-21T11:10:21;101714.31;;;11.07;80.62
8101;BME280;4093;53.470;9.832;2023-11-21T11:12:49;101717.84;;;10.74;81.68
8101;BME280;4093;53.470;9.832;2023-11-21T11:15:20;101723.94;;;10.50;82.65
8101;BME280;4093;53.470;9.832;2023-11-21T11:17:49;101729.97;;;10.41;83.10
8101;BME280;4093;53.470;9.832;2023-11-21T11:20:17;101728.25;;;10.40;82.04
8101;BME280;4093;53.470;9.832;2023-11-21T11:22:53;101748.59;;;11.60;79.51
8101;BME280;4093;53.470;9.832;2023-11-21T11:25:47;101737.53;;;11.24;80.36
8101;BME280;4093;53.470;9.832;2023-11-21T11:28:21;101736.81;;;10.18;83.32
8101;BME280;4093;53.470;9.832;2023-11-21T11:31:04;101739.47;;;10.38;82.09
8101;BME280;4093;53.470;9.832;2023-11-21T11:33:40;101741.97;;;10.88;80.21
8101;BME280;4093;53.470;9.832;2023-11-21T11:36:13;101744.44;;;11.21;79.26
8101;BME280;4093;53.470;9.832;2023-11-21T11:38:46;101742.88;;;10.18;81.65
8101;BME280;4093;53.470;9.832;2023-11-21T11:41:24;101742.91;;;10.54;80.68
8101;BME280;4093;53.470;9.832;2023-11-21T11:43:53;101748.91;;;10.73;80.60
8101;BME280;4093;53.470;9.832;2023-11-21T11:46:40;101749.63;;;11.22;79.54
8101;BME280;4093;53.470;9.832;2023-11-21T11:49:09;101759.03;;;11.37;78.11
8101;BME280;4093;53.470;9.832;2023-11-21T11:51:38;101754.88;;;10.95;79.21
8101;BME280;4093;53.470;9.832;2023-11-21T11:54:05;101724.75;;;10.81;79.26
8101;BME280;4093;53.470;9.832;2023-11-21T11:56:34;101752.97;;;11.46;77.61
8101;BME280;4093;53.470;9.832;2023-11-21T11:59:04;101750.47;;;11.24;77.23
8101;BME280;4093;53.470;9.832;2023-11-21T12:01:33;101761.56;;;11.52;76.31
8101;BME280;4093;53.470;9.832;2023-11-21T12:04:23;101753.06;;;11.29;76.32
8101;BME280;4093;53.470;9.832;2023-11-21T12:07:00;101741.16;;;10.67;78.13
8101;BME280;4093;53.470;9.832;2023-11-21T12:09:31;101735.78;;;11.25;75.48
8101;BME280;4093;53.470;9.832;2023-11-21T12:11:59;101762.69;;;10.79;78.31
8101;BME280;4093;53.470;9.832;2023-11-21T12:14:27;101779.59;;;11.78;75.48
8101;BME280;4093;53.470;9.832;2023-11-21T12:16:56;101761.78;;;10.97;76.04
8101;BME280;4093;53.470;9.832;2023-11-21T12:19:25;101765.13;;;11.34;76.02
8101;BME280;4093;53.470;9.832;2023-11-21T12:21:53;101768.75;;;10.48;77.71
8101;BME280;4093;53.470;9.832;2023-11-21T12:24:22;101791.59;;;11.95;75.48
8101;BME280;4093;53.470;9.832;2023-11-21T12:26:50;101783.94;;;11.67;72.58
8101;BME280;4093;53.470;9.832;2023-11-21T12:29:18;101787.69;;;10.82;74.91
8101;BME280;4093;53.470;9.832;2023-11-21T12:31:48;101795.97;;;11.82;74.07
8101;BME280;4093;53.470;9.832;2023-11-21T12:34:18;101795.94;;;11.93;73.20
8101;BME280;4093;53.470;9.832;2023-11-21T12:36:45;101793.47;;;11.61;74.17
8101;BME280;4093;53.470;9.832;2023-11-21T12:39:13;101810.84;;;11.31;74.24
8101;BME280;4093;53.470;9.832;2023-11-21T12:41:41;101810.97;;;10.80;74.41
8101;BME280;4093;53.470;9.832;2023-11-21T12:44:11;101810.13;;;10.61;75.83
8101;BME280;4093;53.470;9.832;2023-11-21T12:46:42;101808.31;;;11.17;74.62
8101;BME280;4093;53.470;9.832;2023-11-21T12:49:11;101803.16;;;10.17;76.59
8101;BME280;4093;53.470;9.832;2023-11-21T12:51:45;101806.69;;;10.65;76.17
8101;BME280;4093;53.470;9.832;2023-11-21T12:54:13;101804.84;;;11.21;74.81
8101;BME280;4093;53.470;9.832;2023-11-21T12:56:45;101825.59;;;11.03;74.07
8101;BME280;4093;53.470;9.832;2023-11-21T12:59:15;101813.53;;;10.83;75.75
8101;BME280;4093;53.470;9.832;2023-11-21T13:01:44;101831.66;;;11.03;74.09
8101;BME280;4093;53.470;9.832;2023-11-21T13:04:12;101841.00;;;11.53;73.88
8101;BME280;4093;53.470;9.832;2023-11-21T13:06:41;101839.31;;;11.37;73.78
8101;BME280;4093;53.470;9.832;2023-11-21T13:09:10;101838.47;;;11.35;74.02
8101;BME280;4093;53.470;9.832;2023-11-21T13:11:39;101844.59;;;10.57;76.46
8101;BME280;4093;53.470;9.832;2023-11-21T13:14:07;101846.31;;;10.29;77.16
8101;BME280;4093;53.470;9.832;2023-11-21T13:16:37;101852.38;;;10.40;78.41
8101;BME280;4093;53.470;9.832;2023-11-21T13:19:05;101866.13;;;11.15;77.14
8101;BME280;4093;53.470;9.832;2023-11-21T13:21:35;101858.41;;;10.92;77.05
8101;BME280;4093;53.470;9.832;2023-11-21T13:24:03;101865.31;;;10.70;77.33
8101;BME280;4093;53.470;9.832;2023-11-21T13:26:32;101874.72;;;10.37;78.52